Time;durP1;ratioP1;P1;durP2;ratioP2;P2;SDS_P1;SDS_P2;PMS_P1;PMS_P2;Temp;Humidity;BMP_temperature;BMP_pressure;BME280_temperature;BME280_humidity;BME280_pressure;Samples;Min_cycle;Max_cycle;Signal;HPM_P1;HPM_P2
2021/07/31 00:01:34;;;;;;;8.55;1.15;;;16.50;99.90;;;;;;5093897;28;20017;-77
2021/07/31 00:04:00;;;;;;;3.42;1.35;;;16.40;99.90;;;;;;5094444;28;20012;-80
2021/07/31 00:06:26;;;;;;;5.25;1.20;;;16.40;99.90;;;;;;5094524;28;20043;-78
2021/07/31 00:08:52;;;;;;;9.43;1.20;;;16.40;99.90;;;;;;5076290;28;20466;-77
2021/07/31 00:11:17;;;;;;;5.97;0.90;;;16.30;99.90;;;;;;5093959;28;20024;-76
2021/07/31 00:13:43;;;;;;;6.47;1.15;;;16.40;99.90;;;;;;5093459;28;20028;-76
2021/07/31 00:16:09;;;;;;;7.30;1.20;;;16.30;99.90;;;;;;5093458;28;20016;-76
2021/07/31 00:18:34;;;;;;;7.25;0.60;;;16.30;99.90;;;;;;5093448;28;20093;-76
2021/07/31 00:21:00;;;;;;;16.35;1.80;;;16.30;99.90;;;;;;5075247;28;20027;-77
2021/07/31 00:23:26;;;;;;;7.07;0.90;;;16.30;99.90;;;;;;5093395;28;20052;-77
2021/07/31 00:25:56;;;;;;;6.70;1.17;;;16.30;99.90;;;;;;5093785;28;20036;-80
2021/07/31 00:28:22;;;;;;;7.63;0.80;;;16.40;99.90;;;;;;5075346;28;20032;-77
2021/07/31 00:30:49;;;;;;;7.05;1.38;;;16.40;99.90;;;;;;5093562;28;20028;-78
2021/07/31 00:33:14;;;;;;;7.50;0.90;;;16.40;99.90;;;;;;5075607;28;20027;-78
2021/07/31 00:35:40;;;;;;;1.55;0.32;;;16.40;99.90;;;;;;5093678;28;20016;-78
2021/07/31 00:38:06;;;;;;;6.90;1.40;;;16.40;99.90;;;;;;5093228;28;20087;-78
2021/07/31 00:40:31;;;;;;;8.38;1.20;;;16.40;99.90;;;;;;5075110;28;20102;-78
2021/07/31 00:42:57;;;;;;;6.22;1.02;;;16.30;99.90;;;;;;5093454;28;20021;-78
2021/07/31 00:45:23;;;;;;;10.10;1.05;;;16.30;99.90;;;;;;5093722;28;20469;-76
2021/07/31 00:47:49;;;;;;;4.82;0.60;;;16.30;99.90;;;;;;5075033;28;20082;-77
2021/07/31 00:50:15;;;;;;;6.45;0.98;;;16.20;99.90;;;;;;5097148;28;20024;-78
2021/07/31 00:52:42;;;;;;;9.65;1.83;;;16.20;99.90;;;;;;5079252;28;20081;-77
2021/07/31 00:55:11;;;;;;;8.57;2.00;;;16.20;99.90;;;;;;5097513;28;20020;-78
2021/07/31 00:57:38;;;;;;;;;;;16.20;99.90;;;;;;5098356;28;20024;-76
2021/07/31 01:00:04;;;;;;;11.82;1.25;;;16.20;99.90;;;;;;5097137;28;19908;-80
2021/07/31 01:02:30;;;;;;;5.18;1.10;;;16.10;99.90;;;;;;5097827;28;20024;-76
2021/07/31 01:04:55;;;;;;;9.93;0.85;;;16.10;99.90;;;;;;5079510;28;20020;-78
2021/07/31 01:07:21;;;;;;;7.68;1.92;;;16.00;99.90;;;;;;5097562;28;20047;-78
2021/07/31 01:09:46;;;;;;;4.15;0.82;;;16.10;99.90;;;;;;5097792;28;20422;-77
2021/07/31 01:12:12;;;;;;;10.05;0.93;;;16.10;99.90;;;;;;5079223;28;20087;-78
2021/07/31 01:14:38;;;;;;;5.05;0.90;;;16.10;99.90;;;;;;5097137;28;20024;-77
2021/07/31 01:17:05;;;;;;;5.88;0.75;;;16.20;99.90;;;;;;5097480;28;20028;-77
2021/07/31 01:19:31;;;;;;;2.85;0.93;;;16.20;99.90;;;;;;5097125;28;20542;-77
2021/07/31 01:21:57;;;;;;;3.15;0.80;;;16.20;99.90;;;;;;5078892;28;20016;-76
2021/07/31 01:24:22;;;;;;;7.70;1.00;;;16.10;99.90;;;;;;5078652;28;20028;-77
2021/07/31 01:26:49;;;;;;;9.60;1.08;;;16.20;99.90;;;;;;5097673;28;20495;-77
2021/07/31 01:29:16;;;;;;;4.28;0.88;;;16.20;99.90;;;;;;5078339;28;20020;-77
2021/07/31 01:31:44;;;;;;;8.38;1.38;;;16.10;99.90;;;;;;5096846;28;20016;-77
2021/07/31 01:34:09;;;;;;;7.95;1.23;;;16.00;99.90;;;;;;5096659;28;20024;-77
2021/07/31 01:36:35;;;;;;;2.17;0.82;;;15.90;99.90;;;;;;5096678;28;20481;-77
2021/07/31 01:39:01;;;;;;;4.20;1.27;;;15.80;99.90;;;;;;5096481;28;20111;-77
2021/07/31 01:41:28;;;;;;;9.15;2.13;;;15.80;99.90;;;;;;5078448;28;20393;-78
2021/07/31 01:43:54;;;;;;;6.40;1.85;;;15.70;99.90;;;;;;5096258;28;20020;-76
2021/07/31 01:46:21;;;;;;;7.78;1.02;;;15.70;99.90;;;;;;5077879;28;20107;-76
2021/07/31 01:48:47;;;;;;;6.82;1.42;;;15.60;99.90;;;;;;5096226;28;20150;-78
2021/07/31 01:51:12;;;;;;;8.65;1.45;;;15.60;99.90;;;;;;5096139;28;20477;-77
2021/07/31 01:53:38;;;;;;;5.20;1.08;;;15.60;99.90;;;;;;5096230;28;20020;-79
2021/07/31 01:56:04;;;;;;;9.63;2.13;;;15.60;99.90;;;;;;5077930;28;20020;-76
2021/07/31 01:58:30;;;;;;;6.38;1.50;;;15.60;99.90;;;;;;5096170;28;20430;-77
2021/07/31 02:00:56;;;;;;;6.97;1.23;;;15.60;99.90;;;;;;5094850;28;20103;-76
2021/07/31 02:03:22;;;;;;;8.85;1.05;;;15.60;99.90;;;;;;5095723;28;20115;-76
2021/07/31 02:05:48;;;;;;;11.05;1.75;;;15.60;99.90;;;;;;5095770;28;20020;-77
2021/07/31 02:08:14;;;;;;;9.93;0.82;;;15.60;99.90;;;;;;5077511;28;20032;-77
2021/07/31 02:10:40;;;;;;;3.75;1.10;;;15.60;99.90;;;;;;5095740;28;20017;-78
2021/07/31 02:13:05;;;;;;;8.35;1.38;;;15.50;99.90;;;;;;5077634;28;20026;-78
2021/07/31 02:15:31;;;;;;;4.57;1.20;;;15.60;99.90;;;;;;5077595;28;20024;-78
2021/07/31 02:17:56;;;;;;;5.85;1.27;;;15.50;99.90;;;;;;5095544;28;20028;-78
2021/07/31 02:20:22;;;;;;;2.65;0.50;;;15.50;99.90;;;;;;5095548;28;20024;-78
2021/07/31 02:22:49;;;;;;;3.47;0.77;;;15.50;99.90;;;;;;5095937;28;20020;-78
2021/07/31 02:25:15;;;;;;;7.22;1.27;;;15.40;99.90;;;;;;5077847;28;20366;-77
2021/07/31 02:27:43;;;;;;;6.78;1.15;;;15.50;99.90;;;;;;5096049;28;20031;-80
2021/07/31 02:30:10;;;;;;;8.93;1.77;;;15.50;99.90;;;;;;5077980;28;20478;-80
2021/07/31 02:32:35;;;;;;;4.72;0.98;;;15.50;99.90;;;;;;5096130;28;20484;-80
2021/07/31 02:35:01;;;;;;;3.97;1.27;;;15.40;99.90;;;;;;5096375;28;20016;-80
2021/07/31 02:37:26;;;;;;;8.23;1.23;;;15.30;99.90;;;;;;5095316;28;20078;-77
2021/07/31 02:39:52;;;;;;;6.47;0.95;;;15.40;99.90;;;;;;5095297;28;20035;-76
2021/07/31 02:42:18;;;;;;;2.80;0.93;;;15.30;99.90;;;;;;5095315;28;20024;-76
2021/07/31 02:44:43;;;;;;;5.55;1.33;;;15.40;99.90;;;;;;5095078;28;20024;-77
2021/07/31 02:47:09;;;;;;;2.92;1.13;;;15.30;99.90;;;;;;5094870;28;20500;-77
2021/07/31 02:49:34;;;;;;;3.22;0.68;;;15.30;99.90;;;;;;5076641;28;20024;-77
2021/07/31 02:52:00;;;;;;;3.95;0.52;;;15.30;99.90;;;;;;5095443;28;20487;-78
2021/07/31 02:54:25;;;;;;;7.70;1.10;;;15.30;99.90;;;;;;5094877;28;20020;-77
2021/07/31 02:56:51;;;;;;;2.25;0.60;;;15.30;99.90;;;;;;5094983;28;20366;-77
2021/07/31 02:59:16;;;;;;;4.45;1.02;;;15.30;99.90;;;;;;5076480;28;20043;-77
2021/07/31 03:01:42;;;;;;;5.85;0.77;;;15.30;99.90;;;;;;5076528;28;20066;-78
2021/07/31 03:04:07;;;;;;;6.32;0.68;;;15.30;99.90;;;;;;5094887;28;20024;-78
2021/07/31 03:06:33;;;;;;;5.13;1.08;;;15.30;99.90;;;;;;5076577;28;20035;-78
2021/07/31 03:08:58;;;;;;;2.55;1.10;;;15.30;99.90;;;;;;5076698;28;20530;-78
2021/07/31 03:11:24;;;;;;;1.98;0.82;;;16.60;99.90;;;;;;5094875;28;20020;-78
2021/07/31 03:13:50;;;;;;;6.97;1.20;;;15.20;99.90;;;;;;5094956;28;20024;-76
2021/07/31 03:16:16;;;;;;;4.45;0.88;;;15.20;99.90;;;;;;5094665;28;20008;-77
2021/07/31 03:18:42;;;;;;;3.28;1.10;;;15.30;99.90;;;;;;5094375;28;20035;-76
2021/07/31 03:21:10;;;;;;;3.47;0.80;;;15.30;99.90;;;;;;5094740;28;20101;-76
2021/07/31 03:23:36;;;;;;;1.33;0.50;;;15.30;99.90;;;;;;5094240;28;20027;-76
2021/07/31 03:26:02;;;;;;;2.95;0.65;;;15.30;99.90;;;;;;5094741;28;20369;-76
2021/07/31 03:28:28;;;;;;;3.13;1.25;;;15.30;99.90;;;;;;5094210;28;20058;-80
2021/07/31 03:30:55;;;;;;;4.38;0.90;;;15.30;99.90;;;;;;5094790;28;20024;-80
2021/07/31 03:33:21;;;;;;;9.98;2.83;;;15.40;99.90;;;;;;5094674;28;20119;-80
2021/07/31 03:35:47;;;;;;;5.75;1.25;;;15.40;99.90;;;;;;5094405;28;20020;-79
2021/07/31 03:38:12;;;;;;;8.80;1.70;;;15.30;99.90;;;;;;5076055;28;20027;-80
2021/07/31 03:40:38;;;;;;;3.08;1.38;;;15.30;99.90;;;;;;5094640;28;20031;-76
2021/07/31 03:43:04;;;;;;;10.20;3.75;;;15.30;99.90;;;;;;5075755;28;20024;-76
2021/07/31 03:45:30;;;;;;;9.82;1.73;;;15.30;99.90;;;;;;5075854;28;20020;-78
2021/07/31 03:47:55;;;;;;;11.70;2.13;;;15.30;99.90;;;;;;5094362;28;20035;-77
2021/07/31 03:50:21;;;;;;;6.55;1.90;;;15.40;99.90;;;;;;5094396;28;20073;-77
2021/07/31 03:52:46;;;;;;;7.53;1.52;;;15.40;99.90;;;;;;5075913;28;20069;-78
2021/07/31 03:55:12;;;;;;;6.70;1.33;;;15.30;99.90;;;;;;5093715;28;20490;-76
2021/07/31 03:57:38;;;;;;;9.02;2.60;;;15.30;99.90;;;;;;5075483;28;20032;-76
2021/07/31 04:00:05;;;;;;;9.68;1.95;;;15.30;99.90;;;;;;5093747;28;20367;-78
2021/07/31 04:02:31;;;;;;;10.30;2.10;;;15.30;99.90;;;;;;5093760;28;20059;-78
2021/07/31 04:04:56;;;;;;;5.03;2.00;;;15.30;99.90;;;;;;5075607;28;20481;-78
2021/07/31 04:07:22;;;;;;;5.40;1.80;;;15.30;99.90;;;;;;5075551;28;20032;-78
2021/07/31 04:09:47;;;;;;;7.82;2.47;;;15.40;99.90;;;;;;5093914;28;20036;-78
2021/07/31 04:12:13;;;;;;;6.70;1.80;;;15.30;99.90;;;;;;5094151;28;20102;-80
2021/07/31 04:14:39;;;;;;;8.20;1.33;;;15.30;99.90;;;;;;5094442;28;20104;-80
2021/07/31 04:17:04;;;;;;;5.57;1.75;;;15.40;99.90;;;;;;5075805;28;20210;-77
2021/07/31 04:19:30;;;;;;;11.25;2.08;;;15.40;99.90;;;;;;5093411;28;20028;-77
2021/07/31 04:21:58;;;;;;;4.57;1.75;;;15.40;99.90;;;;;;5093588;28;20036;-78
2021/07/31 04:24:25;;;;;;;9.35;1.98;;;15.30;99.90;;;;;;5093772;28;20056;-78
2021/07/31 04:26:51;;;;;;;5.25;2.15;;;15.30;99.90;;;;;;5075523;28;20046;-79
2021/07/31 04:29:17;;;;;;;3.53;2.00;;;15.40;99.90;;;;;;5075692;28;20020;-77
2021/07/31 04:31:43;;;;;;;6.35;0.93;;;15.60;99.90;;;;;;5093611;28;20027;-77
2021/07/31 04:34:09;;;;;;;5.68;1.88;;;15.40;99.90;;;;;;5075419;28;20027;-77
2021/07/31 04:36:35;;;;;;;2.55;0.82;;;15.40;99.90;;;;;;5093610;28;20032;-80
2021/07/31 04:39:01;;;;;;;3.72;1.00;;;15.30;99.90;;;;;;5093621;28;20028;-80
2021/07/31 04:41:27;;;;;;;6.60;1.00;;;15.30;99.90;;;;;;5093579;28;20056;-77
2021/07/31 04:43:52;;;;;;;2.17;0.90;;;15.30;99.90;;;;;;5093568;28;20428;-77
2021/07/31 04:46:18;;;;;;;7.22;1.00;;;15.20;99.90;;;;;;5093421;28;20047;-78
2021/07/31 04:48:43;;;;;;;3.20;1.38;;;15.10;99.90;;;;;;5075105;28;20028;-77
2021/07/31 04:51:09;;;;;;;5.05;1.17;;;15.10;99.90;;;;;;5093383;28;20020;-80
2021/07/31 04:53:35;;;;;;;3.13;1.45;;;15.10;99.90;;;;;;5075636;28;20377;-80
2021/07/31 04:56:00;;;;;;;2.95;0.80;;;15.10;99.90;;;;;;5093137;28;20100;-76
2021/07/31 04:58:26;;;;;;;6.57;1.77;;;15.10;99.90;;;;;;5075146;28;20020;-77
2021/07/31 05:00:54;;;;;;;4.30;1.02;;;15.20;99.90;;;;;;5093310;28;20046;-77
2021/07/31 05:03:20;;;;;;;6.53;1.20;;;15.20;99.90;;;;;;5093279;28;20051;-76
2021/07/31 05:05:46;;;;;;;6.68;0.98;;;15.20;99.90;;;;;;5093035;28;20496;-76
2021/07/31 05:08:12;;;;;;;7.13;1.23;;;15.20;99.90;;;;;;5093297;28;20049;-77
2021/07/31 05:10:45;;;;;;;5.20;1.65;;;15.20;99.90;;;;;;5093283;28;20016;-80
2021/07/31 05:13:11;;;;;;;3.95;1.50;;;15.20;99.90;;;;;;5075473;28;20020;-80
2021/07/31 05:15:42;;;;;;;6.30;2.13;;;15.10;99.90;;;;;;5093404;28;20095;-80
2021/07/31 05:18:08;;;;;;;8.38;1.13;;;15.10;99.90;;;;;;5092965;28;20081;-78
2021/07/31 05:20:38;;;;;;;5.43;1.00;;;15.10;99.90;;;;;;5075146;28;20032;-78
2021/07/31 05:23:04;;;;;;;8.70;0.73;;;15.10;99.90;;;;;;5093880;28;20028;-77
2021/07/31 05:25:30;;;;;;;4.47;1.40;;;15.10;99.90;;;;;;5075012;28;20081;-77
2021/07/31 05:27:55;;;;;;;5.53;1.65;;;15.10;99.90;;;;;;5074963;28;20028;-77
2021/07/31 05:30:21;;;;;;;3.70;1.10;;;15.10;99.90;;;;;;5074669;28;20531;-78
2021/07/31 05:32:47;;;;;;;5.47;0.68;;;15.10;99.90;;;;;;5074667;28;20039;-78
2021/07/31 05:35:12;;;;;;;4.72;1.13;;;15.00;99.90;;;;;;5093575;28;20016;-78
2021/07/31 05:37:38;;;;;;;1.42;0.40;;;15.10;99.90;;;;;;5096479;28;20402;-78
2021/07/31 05:40:04;;;;;;;3.50;0.82;;;15.10;99.90;;;;;;5096322;28;20028;-76
2021/07/31 05:42:29;;;;;;;2.92;0.60;;;15.10;99.90;;;;;;5078189;28;20066;-78
2021/07/31 05:44:57;;;;;;;2.22;0.60;;;15.10;99.90;;;;;;5097174;28;20058;-80
2021/07/31 05:47:24;;;;;;;1.75;0.40;;;15.10;99.90;;;;;;5096611;28;20386;-78
2021/07/31 05:49:51;;;;;;;5.20;0.40;;;15.10;99.90;;;;;;5109121;22;20040;-77
2021/07/31 05:52:17;;;;;;;2.15;0.43;;;15.10;99.90;;;;;;5078359;28;20393;-75
2021/07/31 05:54:43;;;;;;;4.97;0.57;;;15.10;99.90;;;;;;5096039;28;20012;-76
2021/07/31 05:57:09;;;;;;;2.97;0.40;;;15.00;99.90;;;;;;5096440;28;20082;-75
2021/07/31 05:59:34;;;;;;;1.65;0.30;;;15.10;99.90;;;;;;5096063;28;20028;-75
2021/07/31 06:02:00;;;;;;;5.00;0.82;;;15.20;99.90;;;;;;5096096;28;20058;-77
2021/07/31 06:04:25;;;;;;;2.53;0.20;;;15.20;99.90;;;;;;5095946;28;20067;-77
2021/07/31 06:06:52;;;;;;;0.57;0.40;;;15.30;99.90;;;;;;5090393;22;20482;-77
2021/07/31 06:09:18;;;;;;;5.18;0.75;;;15.40;99.90;;;;;;5077807;28;20023;-77
2021/07/31 06:11:43;;;;;;;3.03;0.90;;;15.40;99.90;;;;;;5095688;28;20073;-75
2021/07/31 06:14:09;;;;;;;2.00;0.80;;;15.50;99.90;;;;;;5096237;28;20020;-77
2021/07/31 06:16:35;;;;;;;1.95;0.35;;;15.50;99.90;;;;;;5077629;28;20027;-77
2021/07/31 06:19:00;;;;;;;2.22;0.30;;;15.50;99.90;;;;;;5095861;28;20024;-77
2021/07/31 06:21:26;;;;;;;1.65;0.52;;;15.60;99.90;;;;;;5077752;28;20024;-77
2021/07/31 06:23:51;;;;;;;3.45;0.90;;;15.50;99.90;;;;;;5095700;28;20522;-77
2021/07/31 06:26:17;;;;;;;3.13;0.57;;;15.70;99.90;;;;;;5077740;28;20070;-77
2021/07/31 06:28:42;;;;;;;5.75;0.88;;;15.60;99.90;;;;;;5095567;28;20032;-78
2021/07/31 06:31:08;;;;;;;2.50;0.13;;;15.60;99.90;;;;;;5096752;28;20028;-78
2021/07/31 06:33:34;;;;;;;1.65;0.30;;;15.60;99.90;;;;;;5095277;28;20059;-75
2021/07/31 06:36:00;;;;;;;2.45;0.32;;;15.60;99.90;;;;;;5095196;28;20020;-76
2021/07/31 06:38:25;;;;;;;3.55;0.60;;;15.60;99.90;;;;;;5095193;28;20034;-77
2021/07/31 06:40:50;;;;;;;3.65;0.30;;;15.60;99.90;;;;;;5095307;28;20111;-75
2021/07/31 06:43:16;;;;;;;4.35;0.68;;;15.60;99.90;;;;;;5095583;28;20394;-77
2021/07/31 06:45:42;;;;;;;3.40;0.32;;;15.60;99.90;;;;;;5094966;28;20150;-77
2021/07/31 06:48:07;;;;;;;1.70;0.47;;;15.50;99.90;;;;;;5076606;28;20035;-75
2021/07/31 06:50:33;;;;;;;6.65;0.30;;;15.60;99.90;;;;;;5095170;28;20024;-76
2021/07/31 06:52:58;;;;;;;4.70;0.57;;;15.60;99.90;;;;;;5076752;28;20024;-76
2021/07/31 06:55:24;;;;;;;2.15;0.32;;;15.60;99.90;;;;;;5077137;28;20543;-77
2021/07/31 06:57:49;;;;;;;3.17;0.20;;;15.80;99.90;;;;;;5095351;28;20023;-77
2021/07/31 07:00:15;;;;;;;4.72;0.50;;;15.80;99.90;;;;;;5095849;28;20028;-76
2021/07/31 07:02:40;;;;;;;2.38;0.20;;;15.90;99.90;;;;;;5094658;28;20032;-75
2021/07/31 07:05:06;;;;;;;0.68;0.10;;;16.00;99.90;;;;;;5094591;28;20073;-76
2021/07/31 07:07:32;;;;;;;0.35;0.20;;;16.00;99.90;;;;;;5076144;28;20028;-76
2021/07/31 07:09:57;;;;;;;1.50;0.10;;;16.10;99.90;;;;;;5094934;28;20058;-75
2021/07/31 07:12:23;;;;;;;2.00;0.30;;;16.10;99.90;;;;;;5076293;28;20035;-76
2021/07/31 07:14:48;;;;;;;2.35;0.55;;;16.10;99.90;;;;;;5094507;28;20020;-75
2021/07/31 07:17:14;;;;;;;1.40;0.17;;;16.10;99.90;;;;;;5076207;28;20393;-75
2021/07/31 07:19:40;;;;;;;5.03;0.20;;;16.00;99.90;;;;;;5094226;28;20016;-76
2021/07/31 07:22:05;;;;;;;2.78;0.20;;;16.10;99.90;;;;;;5076088;28;20481;-75
2021/07/31 07:24:35;;;;;;;3.35;0.30;;;16.10;99.90;;;;;;5094316;28;20051;-75
2021/07/31 07:27:00;;;;;;;3.60;0.22;;;16.40;99.90;;;;;;5088676;22;20036;-76
2021/07/31 07:29:26;;;;;;;7.55;0.55;;;16.70;99.90;;;;;;5094321;28;20034;-76
2021/07/31 07:31:51;;;;;;;2.20;0.75;;;16.80;99.90;;;;;;5094089;28;20476;-76
2021/07/31 07:34:17;;;;;;;2.92;0.50;;;16.90;99.90;;;;;;5094084;28;20020;-77
2021/07/31 07:36:43;;;;;;;2.35;0.45;;;17.10;99.90;;;;;;5076304;28;20047;-77
2021/07/31 07:39:09;;;;;;;1.02;0.47;;;17.10;99.90;;;;;;5094542;28;20069;-77
2021/07/31 07:41:34;;;;;;;5.25;0.30;;;17.10;99.90;;;;;;5075824;28;20016;-77
2021/07/31 07:44:00;;;;;;;2.97;0.10;;;17.00;99.90;;;;;;5094256;28;20012;-77
2021/07/31 07:46:26;;;;;;;2.70;0.00;;;16.80;99.90;;;;;;5094086;28;20016;-75
2021/07/31 07:48:52;;;;;;;4.05;0.10;;;16.70;99.90;;;;;;5093757;28;20043;-75
2021/07/31 07:51:17;;;;;;;1.65;0.22;;;16.70;99.90;;;;;;5075652;28;20017;-76
2021/07/31 07:53:44;;;;;;;1.17;0.10;;;16.70;99.90;;;;;;5093691;28;20024;-76
2021/07/31 07:56:09;;;;;;;1.70;0.10;;;16.70;99.90;;;;;;5093902;28;20012;-77
2021/07/31 07:58:35;;;;;;;3.03;0.20;;;16.80;99.90;;;;;;5093896;28;20127;-77
2021/07/31 08:01:00;;;;;;;3.05;0.55;;;17.10;99.90;;;;;;5094157;28;20026;-78
2021/07/31 08:03:26;;;;;;;0.70;0.13;;;17.30;99.90;;;;;;5075843;28;20023;-77
2021/07/31 08:05:51;;;;;;;1.85;0.00;;;17.40;99.90;;;;;;5093802;28;20063;-77
2021/07/31 08:08:17;;;;;;;1.10;0.08;;;17.50;99.90;;;;;;5075763;28;20024;-76
2021/07/31 08:10:43;;;;;;;1.83;0.30;;;17.60;99.90;;;;;;5093880;28;20374;-77
2021/07/31 08:13:08;;;;;;;2.20;0.30;;;17.30;99.90;;;;;;5093654;28;20051;-77
2021/07/31 08:15:34;;;;;;;0.25;0.10;;;17.30;99.90;;;;;;5075454;28;20020;-77
2021/07/31 08:17:59;;;;;;;2.92;0.40;;;17.10;99.90;;;;;;5075422;28;20032;-77
2021/07/31 08:20:25;;;;;;;1.15;0.30;;;16.90;99.90;;;;;;5075416;28;20508;-77
2021/07/31 08:22:50;;;;;;;0.52;0.20;;;16.80;99.90;;;;;;5093867;28;20145;-77
2021/07/31 08:25:16;;;;;;;4.43;0.30;;;16.70;99.90;;;;;;5093967;28;20085;-77
2021/07/31 08:27:42;;;;;;;0.20;0.10;;;16.60;99.90;;;;;;5075282;28;20595;-75
2021/07/31 08:30:11;;;;;;;1.33;0.30;;;16.50;99.90;;;;;;5093940;28;20030;-77
2021/07/31 08:32:36;;;;;;;1.73;0.20;;;16.50;99.90;;;;;;5093770;28;20466;-75
2021/07/31 08:35:02;;;;;;;2.65;0.20;;;16.60;99.90;;;;;;5075235;28;20089;-77
2021/07/31 08:37:28;;;;;;;1.17;0.10;;;16.60;99.90;;;;;;5093408;28;20024;-76
2021/07/31 08:39:54;;;;;;;0.98;0.20;;;16.70;99.90;;;;;;5093410;28;20029;-77
2021/07/31 08:42:19;;;;;;;1.70;0.20;;;16.70;99.90;;;;;;5093433;28;20047;-77
2021/07/31 08:44:45;;;;;;;1.15;0.10;;;16.70;99.90;;;;;;5094095;28;20469;-77
2021/07/31 08:47:13;;;;;;;2.90;0.22;;;16.70;99.90;;;;;;5093827;28;20035;-77
2021/07/31 08:49:43;;;;;;;0.60;0.30;;;16.70;99.90;;;;;;5093680;28;20017;-77
2021/07/31 08:52:09;;;;;;;3.33;1.02;;;16.70;99.90;;;;;;5075209;28;20020;-77
2021/07/31 08:54:39;;;;;;;0.40;0.10;;;16.90;99.90;;;;;;5075524;28;20381;-77
2021/07/31 08:57:06;;;;;;;1.38;0.05;;;17.00;99.90;;;;;;5075234;28;20032;-77
2021/07/31 08:59:32;;;;;;;3.55;0.10;;;17.10;99.90;;;;;;5075039;28;20020;-75
2021/07/31 09:01:58;;;;;;;0.77;0.10;;;17.00;99.90;;;;;;5075119;28;20122;-78
2021/07/31 09:04:24;;;;;;;1.85;0.20;;;17.10;99.90;;;;;;5093340;28;20032;-75
2021/07/31 09:06:50;;;;;;;1.65;0.10;;;17.00;99.90;;;;;;5092801;28;20024;-75
2021/07/31 09:09:27;;;;;;;3.50;0.00;;;17.00;99.90;;;;;;5093523;28;20385;-75
2021/07/31 09:12:00;;;;;;;1.77;0.10;;;16.90;99.90;;;;;;5078607;28;20370;-75
2021/07/31 09:14:27;;;;;;;1.48;0.00;;;16.90;99.90;;;;;;5096783;28;20469;-75
2021/07/31 09:16:53;;;;;;;0.50;0.10;;;17.00;99.90;;;;;;5096803;28;20027;-76
2021/07/31 09:19:19;;;;;;;4.13;0.38;;;17.10;99.90;;;;;;5096891;28;20389;-79
2021/07/31 09:21:46;;;;;;;3.38;0.57;;;17.20;99.90;;;;;;5097009;28;20020;-79
2021/07/31 09:24:23;;;;;;;6.43;0.63;;;17.40;99.90;;;;;;5097557;28;20074;-75
2021/07/31 09:26:51;;;;;;;2.10;0.30;;;17.60;99.90;;;;;;5096412;28;20446;-75
2021/07/31 09:29:19;;;;;;;3.20;0.20;;;17.80;99.90;;;;;;5096623;28;20104;-77
2021/07/31 09:31:55;;;;;;;3.95;0.38;;;18.10;99.90;;;;;;5078330;28;20394;-77
2021/07/31 09:34:24;;;;;;;3.40;0.20;;;18.40;99.90;;;;;;5078390;28;20554;-77
2021/07/31 09:36:49;;;;;;;1.98;0.10;;;18.60;99.90;;;;;;5096652;28;20526;-77
2021/07/31 09:39:15;;;;;;;3.17;0.75;;;18.70;99.90;;;;;;5078480;28;20105;-77
2021/07/31 09:41:42;;;;;;;1.63;0.00;;;18.60;99.90;;;;;;5096305;28;20020;-75
2021/07/31 09:44:17;;;;;;;2.55;0.45;;;18.30;99.90;;;;;;5096350;28;20016;-77
2021/07/31 09:46:49;;;;;;;3.95;0.13;;;18.10;99.90;;;;;;5096395;28;20047;-77
2021/07/31 09:49:23;;;;;;;2.92;0.20;;;17.90;99.90;;;;;;5096515;28;20024;-76
2021/07/31 09:51:51;;;;;;;2.45;0.45;;;18.00;99.90;;;;;;5096615;28;20032;-78
2021/07/31 09:54:19;;;;;;;3.88;0.13;;;18.30;99.90;;;;;;5096320;28;20095;-77
2021/07/31 09:56:54;;;;;;;3.13;0.20;;;18.70;99.90;;;;;;5078358;28;20028;-77
2021/07/31 09:59:22;;;;;;;2.58;0.10;;;19.20;99.90;;;;;;5096638;28;20046;-79
2021/07/31 10:01:54;;;;;;;2.42;0.10;;;19.50;99.90;;;;;;5096500;28;20024;-79
2021/07/31 10:04:20;;;;;;;4.13;0.70;;;19.60;99.90;;;;;;5096644;28;20024;-76
2021/07/31 10:06:46;;;;;;;3.63;0.28;;;19.70;99.90;;;;;;5096530;28;20028;-77
2021/07/31 10:09:13;;;;;;;3.97;0.10;;;20.00;99.90;;;;;;5096654;28;20016;-76
2021/07/31 10:11:40;;;;;;;0.50;0.00;;;19.90;99.90;;;;;;5095795;28;20020;-75
2021/07/31 10:14:08;;;;;;;1.08;0.00;;;19.80;99.90;;;;;;5096045;28;20020;-77
2021/07/31 10:16:37;;;;;;;1.42;0.10;;;19.80;99.90;;;;;;5096015;28;20034;-77
2021/07/31 10:19:04;;;;;;;0.90;0.00;;;19.90;99.90;;;;;;5095743;28;20032;-77
2021/07/31 10:21:34;;;;;;;0.10;0.00;;;20.10;99.90;;;;;;5094847;28;20055;-77
2021/07/31 10:24:04;;;;;;;1.08;0.25;;;20.20;99.90;;;;;;5077378;28;20161;-75
2021/07/31 10:26:31;;;;;;;2.38;0.22;;;20.00;99.90;;;;;;5095785;28;20032;-75
2021/07/31 10:29:27;;;;;;;0.00;0.00;;;20.00;99.90;;;;;;5095313;28;20032;-77
2021/07/31 10:31:57;;;;;;;3.28;0.20;;;20.10;99.90;;;;;;5095978;28;20039;-78
2021/07/31 10:35:02;;;;;;;1.58;0.08;;;19.80;99.90;;;;;;5096070;28;20074;-78
2021/07/31 10:37:31;;;;;;;0.15;0.00;;;19.90;99.90;;;;;;5055402;28;20119;-78
2021/07/31 10:40:02;;;;;;;0.00;0.00;;;20.10;99.90;;;;;;5095851;28;20024;-77
2021/07/31 10:42:46;;;;;;;1.90;0.00;;;20.30;99.90;;;;;;5095870;28;20028;-77
2021/07/31 10:45:26;;;;;;;0.90;0.00;;;20.40;99.90;;;;;;5095032;28;20366;-75
2021/07/31 10:47:56;;;;;;;0.10;0.00;;;20.40;99.90;;;;;;5094981;28;20439;-75
2021/07/31 10:52:57;;;;;;;1.08;0.00;;;20.60;99.90;;;;;;5095491;28;20050;-75
2021/07/31 10:55:38;;;;;;;0.10;0.00;;;20.70;99.90;;;;;;5094879;28;20051;-77
2021/07/31 10:58:07;;;;;;;1.38;0.22;;;20.50;99.90;;;;;;5094811;28;20036;-76
2021/07/31 11:00:34;;;;;;;2.03;0.10;;;20.40;99.90;;;;;;5095191;28;20016;-77
2021/07/31 11:03:24;;;;;;;0.53;0.00;;;20.30;99.90;;;;;;5076677;28;20068;-76
2021/07/31 11:06:00;;;;;;;1.65;0.98;;;20.60;99.90;;;;;;5084700;28;20115;-75
2021/07/31 11:08:27;;;;;;;1.88;0.10;;;20.80;99.90;;;;;;5076213;28;20028;-75
2021/07/31 11:10:56;;;;;;;0.20;0.00;;;21.10;99.90;;;;;;5076523;28;20434;-77
2021/07/31 11:13:22;;;;;;;0.30;0.00;;;21.50;99.90;;;;;;5076444;28;20027;-77
2021/07/31 11:15:59;;;;;;;0.17;0.10;;;21.70;99.90;;;;;;5076520;28;20385;-77
2021/07/31 11:18:47;;;;;;;1.17;0.00;;;21.60;99.90;;;;;;5094685;28;20035;-77
2021/07/31 11:21:17;;;;;;;0.13;0.00;;;21.30;99.90;;;;;;5076543;28;20528;-77
2021/07/31 11:23:52;;;;;;;1.08;0.00;;;21.20;99.90;;;;;;5094442;28;20024;-76
2021/07/31 11:26:44;;;;;;;0.20;0.00;;;21.00;99.90;;;;;;5094325;28;20051;-77
2021/07/31 11:29:17;;;;;;;2.38;0.10;;;20.60;99.90;;;;;;5094858;28;20537;-79
2021/07/31 11:32:04;;;;;;;2.67;0.00;;;20.50;99.90;;;;;;5094485;28;20020;-77
2021/07/31 11:34:43;;;;;;;0.43;0.00;;;20.10;99.90;;;;;;5094426;28;20393;-77
2021/07/31 11:37:09;;;;;;;3.80;0.10;;;19.80;99.90;;;;;;5094382;28;20532;-77
2021/07/31 11:39:36;;;;;;;1.38;0.03;;;19.50;99.90;;;;;;5094873;28;20035;-77
2021/07/31 11:42:02;;;;;;;1.08;0.00;;;19.50;99.90;;;;;;5076275;28;20438;-77
2021/07/31 11:44:35;;;;;;;1.27;0.00;;;19.40;99.90;;;;;;5076086;28;20029;-77
2021/07/31 11:47:02;;;;;;;3.33;0.13;;;19.20;99.90;;;;;;5094932;28;20056;-77
2021/07/31 11:49:38;;;;;;;2.08;0.05;;;19.10;99.90;;;;;;5094074;28;20059;-77
2021/07/31 11:52:08;;;;;;;3.22;0.17;;;19.30;99.90;;;;;;5094134;28;20099;-76
2021/07/31 11:54:38;;;;;;;0.40;0.00;;;19.80;99.90;;;;;;5093851;28;20039;-76
2021/07/31 11:57:05;;;;;;;3.15;0.75;;;20.20;99.90;;;;;;5094311;28;20145;-76
2021/07/31 11:59:33;;;;;;;1.77;0.00;;;20.30;99.90;;;;;;5075568;28;20032;-76
2021/07/31 12:01:59;;;;;;;4.63;0.70;;;20.20;99.90;;;;;;5094106;28;20070;-75
2021/07/31 12:04:47;;;;;;;1.25;0.43;;;20.00;99.90;;;;;;5094028;28;20141;-76
2021/07/31 12:07:14;;;;;;;;;;;20.20;99.90;;;;;;5093911;28;20028;-75
2021/07/31 12:09:41;;;;;;;1.92;0.40;;;20.60;99.90;;;;;;5093486;28;19998;-75
2021/07/31 12:12:29;;;;;;;3.15;0.17;;;20.80;99.90;;;;;;5094069;28;20099;-77
2021/07/31 12:15:26;;;;;;;0.47;0.30;;;21.10;99.90;;;;;;5093935;28;20077;-75
2021/07/31 12:17:54;;;;;;;2.85;0.20;;;21.40;99.90;;;;;;5093701;28;20385;-77
2021/07/31 12:20:34;;;;;;;2.25;0.30;;;21.50;99.90;;;;;;5107812;22;20051;-75
2021/07/31 12:23:01;;;;;;;4.00;0.20;;;21.30;99.90;;;;;;5073535;28;20108;-75
2021/07/31 12:25:28;;;;;;;1.55;0.20;;;21.20;99.90;;;;;;5073339;28;20059;-77
2021/07/31 12:27:56;;;;;;;5.78;0.77;;;21.50;99.90;;;;;;5073536;28;20031;-77
2021/07/31 12:30:36;;;;;;;2.38;0.45;;;21.60;99.90;;;;;;5073888;28;20025;-79
2021/07/31 12:33:04;;;;;;;3.85;0.30;;;21.60;99.90;;;;;;5055753;28;20052;-75
2021/07/31 12:35:43;;;;;;;3.00;0.30;;;21.30;99.90;;;;;;5073151;28;20032;-75
2021/07/31 12:38:13;;;;;;;1.95;0.50;;;21.10;99.90;;;;;;5055514;28;20027;-75
2021/07/31 12:40:40;;;;;;;0.98;0.45;;;21.00;99.90;;;;;;5073259;28;20021;-75
2021/07/31 12:43:18;;;;;;;3.35;0.20;;;21.10;99.90;;;;;;5055050;28;20020;-75
2021/07/31 12:45:45;;;;;;;5.38;0.30;;;21.20;99.90;;;;;;5076062;28;20413;-75
2021/07/31 12:48:12;;;;;;;2.50;0.10;;;21.30;99.90;;;;;;5076909;28;20039;-75
2021/07/31 12:50:39;;;;;;;5.93;0.20;;;21.70;99.90;;;;;;5077306;28;20408;-76
2021/07/31 12:53:05;;;;;;;7.15;0.30;;;22.30;99.90;;;;;;5058954;28;20082;-75